Time;durP1;ratioP1;P1;durP2;ratioP2;P2;SDS_P1;SDS_P2;PMS_P1;PMS_P2;Temp;Humidity;BMP_temperature;BMP_pressure;BME280_temperature;BME280_humidity;BME280_pressure;Samples;Min_cycle;Max_cycle;Signal;HPM_P1;HPM_P2
2023/03/07 00:02:11;;;;;;;8.90;5.88;;;;;;;;;;5055104;28;20028;-59
2023/03/07 00:04:37;;;;;;;7.23;5.43;;;;;;;;;;5054753;28;20021;-59
2023/03/07 00:07:02;;;;;;;11.93;7.40;;;;;;;;;;5054483;28;20032;-59
2023/03/07 00:09:28;;;;;;;7.40;5.00;;;;;;;;;;5055094;28;20028;-59
2023/03/07 00:11:54;;;;;;;9.53;5.67;;;;;;;;;;5054742;28;20033;-59
2023/03/07 00:14:20;;;;;;;7.00;4.97;;;;;;;;;;5054977;28;20094;-59
2023/03/07 00:16:49;;;;;;;7.80;6.38;;;;;;;;;;5054399;28;20025;-59
2023/03/07 00:19:17;;;;;;;6.13;4.70;;;;;;;;;;5054284;28;20037;-59
2023/03/07 00:21:43;;;;;;;8.43;5.57;;;;;;;;;;5054722;28;20112;-59
2023/03/07 00:24:09;;;;;;;7.67;5.77;;;;;;;;;;5054286;28;20057;-59
2023/03/07 00:26:38;;;;;;;7.90;6.05;;;;;;;;;;5054733;28;20025;-59
2023/03/07 00:29:04;;;;;;;8.25;5.55;;;;;;;;;;5054058;28;20083;-59
2023/03/07 00:31:30;;;;;;;7.83;7.13;;;;;;;;;;5053814;28;20083;-59
2023/03/07 00:33:56;;;;;;;9.47;6.73;;;;;;;;;;5054326;28;20059;-59
2023/03/07 00:36:22;;;;;;;7.00;5.57;;;;;;;;;;5054128;28;20024;-59
2023/03/07 00:38:49;;;;;;;8.10;6.27;;;;;;;;;;5054511;28;20108;-59
2023/03/07 00:41:19;;;;;;;8.53;5.17;;;;;;;;;;5053972;28;20112;-59
2023/03/07 00:43:45;;;;;;;7.97;6.60;;;;;;;;;;5053937;28;20025;-59
2023/03/07 00:46:12;;;;;;;7.87;5.07;;;;;;;;;;5054442;28;20033;-59
2023/03/07 00:48:39;;;;;;;7.57;5.83;;;;;;;;;;5054239;28;20055;-59
2023/03/07 00:51:05;;;;;;;7.90;5.70;;;;;;;;;;5054323;28;20025;-59
2023/03/07 00:53:31;;;;;;;7.23;4.90;;;;;;;;;;5054124;28;20362;-59
2023/03/07 00:56:05;;;;;;;10.30;6.27;;;;;;;;;;5054386;28;20025;-59
2023/03/07 00:58:32;;;;;;;9.37;6.30;;;;;;;;;;5052826;28;20025;-59
2023/03/07 01:00:58;;;;;;;8.07;5.47;;;;;;;;;;5054246;28;20335;-59
2023/03/07 01:03:25;;;;;;;10.00;6.97;;;;;;;;;;5053726;28;20083;-59
2023/03/07 01:05:52;;;;;;;8.07;5.57;;;;;;;;;;5054178;28;20034;-59
2023/03/07 01:08:18;;;;;;;7.33;4.97;;;;;;;;;;5053621;28;20033;-59
2023/03/07 01:10:44;;;;;;;8.73;6.30;;;;;;;;;;5053613;28;20024;-59
2023/03/07 01:13:11;;;;;;;6.50;5.17;;;;;;;;;;5053461;28;20501;-59
2023/03/07 01:15:38;;;;;;;7.27;4.87;;;;;;;;;;5054138;28;20033;-59
2023/03/07 01:18:05;;;;;;;6.20;4.77;;;;;;;;;;5053542;28;20033;-59
2023/03/07 01:20:34;;;;;;;7.73;5.93;;;;;;;;;;5053215;28;20459;-59
2023/03/07 01:23:00;;;;;;;8.23;5.80;;;;;;;;;;5053527;28;20366;-59
2023/03/07 01:25:26;;;;;;;9.37;5.80;;;;;;;;;;5054200;28;20033;-59
2023/03/07 01:27:54;;;;;;;9.82;5.03;;;;;;;;;;5053426;28;20033;-59
2023/03/07 01:30:20;;;;;;;7.87;5.40;;;;;;;;;;5053431;28;20029;-59
2023/03/07 01:32:47;;;;;;;7.37;5.27;;;;;;;;;;5053444;28;20021;-59
2023/03/07 01:35:13;;;;;;;8.23;5.50;;;;;;;;;;5053766;28;20033;-59
2023/03/07 01:37:39;;;;;;;7.90;4.67;;;;;;;;;;5053299;28;20040;-59
2023/03/07 01:40:06;;;;;;;6.67;4.97;;;;;;;;;;5053355;28;20029;-59
2023/03/07 01:42:32;;;;;;;10.10;5.30;;;;;;;;;;5052998;28;20024;-59
2023/03/07 01:45:07;;;;;;;6.67;5.03;;;;;;;;;;5053956;28;20500;-59
2023/03/07 01:47:33;;;;;;;7.63;5.13;;;;;;;;;;5053469;28;20029;-59
2023/03/07 01:50:00;;;;;;;8.45;5.55;;;;;;;;;;5053253;28;20025;-59
2023/03/07 01:52:33;;;;;;;5.40;4.17;;;;;;;;;;5052953;28;20044;-59
2023/03/07 01:55:02;;;;;;;6.23;4.70;;;;;;;;;;5053546;28;20025;-59
2023/03/07 01:57:32;;;;;;;8.30;5.20;;;;;;;;;;5053145;28;20029;-59
2023/03/07 01:59:59;;;;;;;8.40;5.57;;;;;;;;;;5053990;28;20163;-59
2023/03/07 02:02:25;;;;;;;5.40;3.83;;;;;;;;;;5053721;28;20682;-59
2023/03/07 02:05:12;;;;;;;6.93;4.67;;;;;;;;;;5053442;28;20458;-59
2023/03/07 02:07:40;;;;;;;7.27;5.53;;;;;;;;;;5053541;28;20363;-59
2023/03/07 02:10:07;;;;;;;6.07;5.47;;;;;;;;;;5053510;28;20027;-59
2023/03/07 02:12:34;;;;;;;7.67;4.63;;;;;;;;;;5052866;28;20445;-59
2023/03/07 02:15:00;;;;;;;6.93;5.27;;;;;;;;;;5053104;28;20064;-59
2023/03/07 02:17:26;;;;;;;6.03;4.87;;;;;;;;;;5052963;28;20025;-59
2023/03/07 02:20:08;;;;;;;7.30;4.93;;;;;;;;;;5057255;28;20410;-59
2023/03/07 02:22:34;;;;;;;8.17;4.97;;;;;;;;;;5056554;28;20036;-59
2023/03/07 02:25:03;;;;;;;7.57;4.17;;;;;;;;;;5056626;28;20048;-59
2023/03/07 02:27:30;;;;;;;8.47;6.50;;;;;;;;;;5056365;28;20037;-59
2023/03/07 02:29:56;;;;;;;6.53;4.53;;;;;;;;;;5056077;28;20032;-59
2023/03/07 02:32:23;;;;;;;9.23;4.97;;;;;;;;;;5056345;28;20096;-59
2023/03/07 02:34:48;;;;;;;9.33;5.40;;;;;;;;;;5056280;28;20029;-59
2023/03/07 02:37:20;;;;;;;9.50;6.37;;;;;;;;;;5056257;28;20031;-59
2023/03/07 02:39:46;;;;;;;6.55;5.10;;;;;;;;;;5056222;28;20029;-59
2023/03/07 02:42:15;;;;;;;8.97;6.10;;;;;;;;;;5056239;28;20060;-59
2023/03/07 02:44:43;;;;;;;8.07;5.82;;;;;;;;;;5056229;28;20516;-59
2023/03/07 02:47:09;;;;;;;8.30;5.07;;;;;;;;;;5056005;28;20056;-59
2023/03/07 02:49:35;;;;;;;8.97;6.73;;;;;;;;;;5056826;28;20021;-59
2023/03/07 02:52:01;;;;;;;8.20;5.33;;;;;;;;;;5056331;28;20032;-59
2023/03/07 02:54:27;;;;;;;6.30;5.00;;;;;;;;;;5056280;28;20036;-59
2023/03/07 02:56:53;;;;;;;8.93;5.68;;;;;;;;;;5056273;28;20025;-59
2023/03/07 02:59:19;;;;;;;7.50;5.93;;;;;;;;;;5055868;28;20040;-59
2023/03/07 03:01:45;;;;;;;5.97;4.30;;;;;;;;;;5055476;28;20033;-59
2023/03/07 03:04:11;;;;;;;6.53;5.20;;;;;;;;;;5055824;28;20150;-59
2023/03/07 03:06:37;;;;;;;7.70;5.00;;;;;;;;;;5056124;28;20064;-59
2023/03/07 03:09:03;;;;;;;5.53;4.87;;;;;;;;;;5055006;28;20048;-59
2023/03/07 03:11:29;;;;;;;7.90;5.50;;;;;;;;;;5055927;28;20033;-59
2023/03/07 03:13:55;;;;;;;10.97;6.63;;;;;;;;;;5055968;28;20053;-59
2023/03/07 03:16:21;;;;;;;7.13;4.73;;;;;;;;;;5055297;28;20078;-59
2023/03/07 03:18:47;;;;;;;10.40;7.03;;;;;;;;;;5055510;28;20061;-59
2023/03/07 03:21:13;;;;;;;6.43;4.67;;;;;;;;;;5055448;28;20025;-59
2023/03/07 03:23:39;;;;;;;7.53;5.97;;;;;;;;;;5055397;28;20371;-59
2023/03/07 03:26:06;;;;;;;14.80;5.77;;;;;;;;;;5055584;28;20036;-59
2023/03/07 03:28:36;;;;;;;8.67;5.13;;;;;;;;;;5055131;28;20078;-59
2023/03/07 03:31:03;;;;;;;9.20;6.23;;;;;;;;;;5054454;28;20029;-59
2023/03/07 03:33:29;;;;;;;8.43;6.20;;;;;;;;;;5055451;28;20048;-59
2023/03/07 03:35:56;;;;;;;6.67;5.37;;;;;;;;;;5055536;28;20033;-59
2023/03/07 03:38:22;;;;;;;5.97;4.93;;;;;;;;;;5055923;28;20123;-59
2023/03/07 03:40:48;;;;;;;8.47;7.37;;;;;;;;;;5053488;28;20520;-59
2023/03/07 03:43:14;;;;;;;7.47;5.07;;;;;;;;;;5055075;28;20126;-59
2023/03/07 03:45:40;;;;;;;6.60;5.63;;;;;;;;;;5055615;28;20045;-59
2023/03/07 03:48:07;;;;;;;6.50;5.17;;;;;;;;;;5054806;28;20040;-59
2023/03/07 03:50:33;;;;;;;7.97;5.60;;;;;;;;;;5055287;28;20467;-59
2023/03/07 03:52:59;;;;;;;10.00;7.10;;;;;;;;;;5054849;28;20028;-59
2023/03/07 03:55:25;;;;;;;6.67;4.93;;;;;;;;;;5055418;28;20032;-59
2023/03/07 03:57:51;;;;;;;7.60;5.60;;;;;;;;;;5055057;28;20486;-59
2023/03/07 04:00:18;;;;;;;8.30;7.00;;;;;;;;;;5054978;28;20498;-59
2023/03/07 04:02:44;;;;;;;8.50;6.30;;;;;;;;;;5054331;28;20025;-59
2023/03/07 04:05:10;;;;;;;5.30;4.30;;;;;;;;;;5054959;28;20025;-59
2023/03/07 04:07:36;;;;;;;8.50;5.30;;;;;;;;;;5054511;28;20111;-59
2023/03/07 04:10:03;;;;;;;5.93;5.13;;;;;;;;;;5054488;28;20025;-59
2023/03/07 04:12:29;;;;;;;7.67;6.23;;;;;;;;;;5055034;28;20033;-59
2023/03/07 04:14:55;;;;;;;8.83;6.43;;;;;;;;;;5054513;28;20032;-59
2023/03/07 04:17:21;;;;;;;8.83;6.27;;;;;;;;;;5054371;28;20021;-59
2023/03/07 04:19:47;;;;;;;8.43;5.40;;;;;;;;;;5054297;28;20029;-59
2023/03/07 04:22:13;;;;;;;11.03;6.83;;;;;;;;;;5054014;28;20036;-59
2023/03/07 04:24:39;;;;;;;9.57;6.17;;;;;;;;;;5054298;28;20039;-59
2023/03/07 04:27:06;;;;;;;7.20;5.20;;;;;;;;;;5054123;28;20024;-59
2023/03/07 04:29:32;;;;;;;8.47;5.57;;;;;;;;;;5054152;28;20123;-60
2023/03/07 04:31:58;;;;;;;11.23;7.83;;;;;;;;;;5054100;28;20029;-59
2023/03/07 04:34:24;;;;;;;6.67;4.90;;;;;;;;;;5054148;28;20079;-59
2023/03/07 04:36:50;;;;;;;9.83;6.13;;;;;;;;;;5054733;28;20029;-59
2023/03/07 04:39:16;;;;;;;4.60;4.20;;;;;;;;;;5054212;28;20064;-59
2023/03/07 04:41:42;;;;;;;9.77;7.30;;;;;;;;;;5053961;28;20025;-59
2023/03/07 04:44:08;;;;;;;6.73;6.03;;;;;;;;;;5054546;28;20036;-59
2023/03/07 04:46:34;;;;;;;8.70;6.23;;;;;;;;;;5054625;28;20032;-59
2023/03/07 04:49:00;;;;;;;9.23;6.43;;;;;;;;;;5053620;28;20033;-59
2023/03/07 04:51:26;;;;;;;6.83;5.90;;;;;;;;;;5053845;28;20031;-59
2023/03/07 04:53:52;;;;;;;7.33;5.10;;;;;;;;;;5053954;28;20033;-59
2023/03/07 04:56:18;;;;;;;6.23;5.60;;;;;;;;;;5053882;28;20474;-59
2023/03/07 04:58:44;;;;;;;8.60;5.87;;;;;;;;;;5053707;28;20124;-59
2023/03/07 05:01:10;;;;;;;9.83;6.30;;;;;;;;;;5053542;28;20029;-59
2023/03/07 05:03:36;;;;;;;13.77;7.40;;;;;;;;;;5054243;28;20431;-59
2023/03/07 05:06:03;;;;;;;7.23;5.17;;;;;;;;;;5054391;28;20061;-59
2023/03/07 05:08:30;;;;;;;9.53;7.03;;;;;;;;;;5054157;28;20083;-59
2023/03/07 05:10:56;;;;;;;4.70;4.00;;;;;;;;;;5053749;28;20040;-59
2023/03/07 05:13:22;;;;;;;7.87;6.33;;;;;;;;;;5053726;28;20045;-59
2023/03/07 05:15:51;;;;;;;10.17;5.93;;;;;;;;;;5053699;28;20037;-59
2023/03/07 05:18:17;;;;;;;6.32;5.00;;;;;;;;;;5054374;28;20033;-59
2023/03/07 05:20:44;;;;;;;6.70;5.13;;;;;;;;;;5053562;28;20371;-59
2023/03/07 05:23:10;;;;;;;6.03;5.43;;;;;;;;;;5054360;28;20028;-60
2023/03/07 05:25:35;;;;;;;6.77;5.83;;;;;;;;;;5053751;28;20408;-59
2023/03/07 05:28:02;;;;;;;8.17;5.87;;;;;;;;;;5054032;28;20036;-59
2023/03/07 05:30:28;;;;;;;9.00;6.83;;;;;;;;;;5053875;28;20528;-59
2023/03/07 05:32:54;;;;;;;7.13;5.10;;;;;;;;;;5053698;28;20142;-59
2023/03/07 05:35:23;;;;;;;9.32;6.65;;;;;;;;;;5053716;28;20124;-59
2023/03/07 05:37:49;;;;;;;7.73;5.37;;;;;;;;;;5053895;28;20074;-59
2023/03/07 05:40:15;;;;;;;6.90;5.77;;;;;;;;;;5053409;28;20025;-59
2023/03/07 05:42:41;;;;;;;6.50;5.87;;;;;;;;;;5053890;28;20035;-59
2023/03/07 05:45:08;;;;;;;7.57;5.77;;;;;;;;;;5054182;28;20032;-60
2023/03/07 05:47:34;;;;;;;7.27;6.50;;;;;;;;;;5053002;28;20033;-60
2023/03/07 05:50:00;;;;;;;6.70;4.73;;;;;;;;;;5053162;28;20024;-60
2023/03/07 05:52:26;;;;;;;13.20;5.43;;;;;;;;;;5053447;28;20079;-56
2023/03/07 05:54:52;;;;;;;5.43;4.83;;;;;;;;;;5057429;28;20113;-56
2023/03/07 05:57:18;;;;;;;7.30;5.53;;;;;;;;;;5056993;28;20108;-54
2023/03/07 05:59:44;;;;;;;6.17;4.93;;;;;;;;;;5057033;28;20036;-55
2023/03/07 06:02:10;;;;;;;6.43;4.53;;;;;;;;;;5057201;28;20029;-54
2023/03/07 06:04:36;;;;;;;9.37;5.87;;;;;;;;;;5056809;28;20104;-53
2023/03/07 06:07:02;;;;;;;7.40;5.33;;;;;;;;;;5056551;28;20021;-54
2023/03/07 06:09:28;;;;;;;7.60;5.73;;;;;;;;;;5057023;28;20102;-56
2023/03/07 06:11:54;;;;;;;8.67;4.90;;;;;;;;;;5056401;28;20375;-54
2023/03/07 06:14:20;;;;;;;6.67;5.37;;;;;;;;;;5056976;28;20056;-55
2023/03/07 06:16:46;;;;;;;7.37;5.17;;;;;;;;;;5056861;28;20032;-56
2023/03/07 06:19:12;;;;;;;5.77;4.03;;;;;;;;;;5056720;28;20108;-57
2023/03/07 06:21:38;;;;;;;6.90;6.27;;;;;;;;;;5056863;28;20029;-57
2023/03/07 06:24:06;;;;;;;5.63;4.47;;;;;;;;;;5056967;28;20032;-56
2023/03/07 06:26:32;;;;;;;5.40;4.70;;;;;;;;;;5057355;28;20029;-57
2023/03/07 06:28:58;;;;;;;8.00;4.50;;;;;;;;;;5056834;28;20051;-54
2023/03/07 06:31:23;;;;;;;10.20;4.53;;;;;;;;;;5057029;28;20028;-54
2023/03/07 06:33:50;;;;;;;7.07;5.27;;;;;;;;;;5056389;28;20029;-50
2023/03/07 06:36:17;;;;;;;5.40;4.53;;;;;;;;;;5056666;28;20056;-54
2023/03/07 06:38:43;;;;;;;5.73;4.03;;;;;;;;;;5056874;28;20036;-56
2023/03/07 06:41:09;;;;;;;5.43;4.30;;;;;;;;;;5056823;28;20028;-57
2023/03/07 06:43:35;;;;;;;5.67;4.00;;;;;;;;;;5055518;28;20400;-53
2023/03/07 06:46:01;;;;;;;6.03;4.47;;;;;;;;;;5056535;28;20032;-55
2023/03/07 06:48:27;;;;;;;4.27;3.83;;;;;;;;;;5056029;28;20033;-56
2023/03/07 06:50:53;;;;;;;8.40;5.27;;;;;;;;;;5056370;28;20516;-52
2023/03/07 06:53:19;;;;;;;8.70;5.17;;;;;;;;;;5055961;28;20032;-56
2023/03/07 06:55:49;;;;;;;5.67;4.33;;;;;;;;;;5056024;28;20033;-55
2023/03/07 06:58:15;;;;;;;7.47;5.10;;;;;;;;;;5056697;28;20025;-54
2023/03/07 07:00:41;;;;;;;10.90;6.23;;;;;;;;;;5055877;28;20348;-56
2023/03/07 07:03:07;;;;;;;6.73;4.90;;;;;;;;;;5055790;28;20087;-54
2023/03/07 07:05:33;;;;;;;8.03;4.57;;;;;;;;;;5055766;28;20463;-55
2023/03/07 07:07:59;;;;;;;7.73;5.07;;;;;;;;;;5055389;28;20116;-57
2023/03/07 07:10:25;;;;;;;7.63;4.53;;;;;;;;;;5056221;28;20036;-57
2023/03/07 07:12:55;;;;;;;6.60;4.13;;;;;;;;;;5055599;28;20045;-57
2023/03/07 07:15:21;;;;;;;5.65;4.68;;;;;;;;;;5056204;28;20033;-58
2023/03/07 07:17:47;;;;;;;6.93;4.47;;;;;;;;;;5055657;28;20356;-57
2023/03/07 07:20:13;;;;;;;5.70;4.65;;;;;;;;;;5056050;28;20025;-57
2023/03/07 07:22:39;;;;;;;10.15;4.68;;;;;;;;;;5055434;28;20352;-54
2023/03/07 07:25:05;;;;;;;10.10;6.07;;;;;;;;;;5055918;28;20036;-56
2023/03/07 07:27:31;;;;;;;4.68;3.85;;;;;;;;;;5055057;28;20514;-56
2023/03/07 07:29:57;;;;;;;7.90;4.75;;;;;;;;;;5055416;28;20131;-58
2023/03/07 07:32:23;;;;;;;8.13;5.15;;;;;;;;;;5055594;28;20128;-54
2023/03/07 07:34:49;;;;;;;8.18;5.10;;;;;;;;;;5054011;28;20029;-56
2023/03/07 07:37:15;;;;;;;9.20;4.80;;;;;;;;;;5055204;28;20459;-55
2023/03/07 07:39:42;;;;;;;8.88;5.07;;;;;;;;;;5055138;28;20108;-55
2023/03/07 07:42:08;;;;;;;4.38;3.92;;;;;;;;;;5055669;28;20032;-57
2023/03/07 07:44:34;;;;;;;7.07;5.15;;;;;;;;;;5055305;28;20174;-54
2023/03/07 07:47:01;;;;;;;7.68;5.13;;;;;;;;;;5055329;28;20017;-57
2023/03/07 07:49:27;;;;;;;7.40;5.25;;;;;;;;;;5054962;28;20422;-58
2023/03/07 07:51:53;;;;;;;6.32;4.93;;;;;;;;;;5055475;28;20367;-56
2023/03/07 07:54:19;;;;;;;6.70;4.78;;;;;;;;;;5054563;28;20025;-57
2023/03/07 07:56:45;;;;;;;6.65;4.57;;;;;;;;;;5055546;28;20025;-56
2023/03/07 07:59:11;;;;;;;4.68;3.53;;;;;;;;;;5054680;28;20028;-57
2023/03/07 08:01:37;;;;;;;6.78;4.82;;;;;;;;;;5055495;28;20341;-56
2023/03/07 08:04:03;;;;;;;8.95;4.88;;;;;;;;;;5054243;28;20036;-54
2023/03/07 08:06:29;;;;;;;6.68;4.53;;;;;;;;;;5055106;28;20025;-57
2023/03/07 08:08:55;;;;;;;12.63;4.53;;;;;;;;;;5053215;28;20033;-56
2023/03/07 08:11:22;;;;;;;6.63;4.75;;;;;;;;;;5054553;28;20029;-58
2023/03/07 08:13:48;;;;;;;6.63;4.88;;;;;;;;;;5054280;28;20537;-57
2023/03/07 08:16:19;;;;;;;5.88;4.07;;;;;;;;;;5053788;28;20036;-58
2023/03/07 08:18:55;;;;;;;7.68;5.45;;;;;;;;;;5054381;28;20040;-57
2023/03/07 08:21:22;;;;;;;9.15;5.82;;;;;;;;;;5054439;28;20143;-58
2023/03/07 08:23:48;;;;;;;8.73;4.85;;;;;;;;;;5054352;28;20109;-57
2023/03/07 08:26:16;;;;;;;7.82;5.32;;;;;;;;;;5054339;28;20059;-57
2023/03/07 08:28:42;;;;;;;8.43;4.88;;;;;;;;;;5054437;28;20033;-54
2023/03/07 08:31:13;;;;;;;6.18;4.28;;;;;;;;;;5054112;28;20370;-56
2023/03/07 08:33:39;;;;;;;8.73;6.03;;;;;;;;;;5054212;28;20025;-57
2023/03/07 08:36:06;;;;;;;7.68;5.18;;;;;;;;;;5054575;28;20017;-57
2023/03/07 08:38:32;;;;;;;7.28;4.45;;;;;;;;;;5054159;28;20039;-57
2023/03/07 08:41:03;;;;;;;8.60;4.75;;;;;;;;;;5053635;28;20474;-56
2023/03/07 08:43:29;;;;;;;6.45;4.53;;;;;;;;;;5054125;28;20024;-57
2023/03/07 08:45:55;;;;;;;9.52;5.30;;;;;;;;;;5054618;28;20091;-56
2023/03/07 08:48:21;;;;;;;8.10;4.80;;;;;;;;;;5054462;28;20104;-57
2023/03/07 08:50:47;;;;;;;5.13;4.03;;;;;;;;;;5054161;28;20111;-56
2023/03/07 08:53:16;;;;;;;5.38;3.97;;;;;;;;;;5053802;28;20478;-57
2023/03/07 08:55:42;;;;;;;7.18;4.43;;;;;;;;;;5054651;28;20052;-55
2023/03/07 08:58:08;;;;;;;7.72;4.65;;;;;;;;;;5053631;28;20029;-55
2023/03/07 09:00:34;;;;;;;6.18;4.10;;;;;;;;;;5053959;28;20191;-57
2023/03/07 09:03:00;;;;;;;7.63;5.03;;;;;;;;;;5053720;28;20485;-54
2023/03/07 09:05:27;;;;;;;6.32;4.40;;;;;;;;;;5054335;28;20048;-58
2023/03/07 09:07:53;;;;;;;8.07;4.97;;;;;;;;;;5053665;28;20047;-54
2023/03/07 09:10:19;;;;;;;7.07;4.53;;;;;;;;;;5053685;28;20079;-53
2023/03/07 09:12:45;;;;;;;5.53;4.72;;;;;;;;;;5053531;28;20063;-57
2023/03/07 09:15:12;;;;;;;6.32;4.18;;;;;;;;;;5053620;28;20021;-57
2023/03/07 09:17:38;;;;;;;6.57;5.07;;;;;;;;;;5053491;28;20425;-56
2023/03/07 09:20:05;;;;;;;5.55;4.18;;;;;;;;;;5053890;28;20033;-56
2023/03/07 09:22:31;;;;;;;6.25;4.10;;;;;;;;;;5054358;28;20029;-55
2023/03/07 09:24:56;;;;;;;4.88;3.53;;;;;;;;;;5053869;28;20033;-55
2023/03/07 09:27:22;;;;;;;5.63;3.83;;;;;;;;;;5054940;28;20483;-56
2023/03/07 09:29:48;;;;;;;10.15;5.22;;;;;;;;;;5057610;28;20020;-57
2023/03/07 09:32:14;;;;;;;4.63;3.75;;;;;;;;;;5057431;28;20051;-56
2023/03/07 09:34:40;;;;;;;5.75;3.75;;;;;;;;;;5058038;28;20104;-57
2023/03/07 09:37:06;;;;;;;3.53;2.53;;;;;;;;;;5058020;28;20469;-56
2023/03/07 09:39:32;;;;;;;3.55;2.88;;;;;;;;;;5057646;28;20036;-59
2023/03/07 09:42:04;;;;;;;6.43;4.68;;;;;;;;;;5057901;28;20032;-57
2023/03/07 09:44:30;;;;;;;5.63;3.47;;;;;;;;;;5057986;28;20033;-50
2023/03/07 09:47:15;;;;;;;6.70;4.15;;;;;;;;;;5057615;28;20375;-54
2023/03/07 09:49:44;;;;;;;6.40;4.53;;;;;;;;;;5057227;28;20048;-53
2023/03/07 09:52:13;;;;;;;5.57;4.15;;;;;;;;;;5057725;28;20036;-51
2023/03/07 09:54:48;;;;;;;4.57;4.05;;;;;;;;;;5057181;28;20035;-53
2023/03/07 09:57:16;;;;;;;4.15;3.10;;;;;;;;;;5057176;28;20068;-51
2023/03/07 09:59:42;;;;;;;5.32;3.80;;;;;;;;;;5057307;28;20436;-54
2023/03/07 10:02:20;;;;;;;5.50;3.65;;;;;;;;;;5056989;28;20025;-53
2023/03/07 10:04:49;;;;;;;4.82;3.28;;;;;;;;;;5057582;28;20021;-53
2023/03/07 10:07:16;;;;;;;6.65;4.22;;;;;;;;;;5056921;28;20037;-51
2023/03/07 10:09:43;;;;;;;7.72;4.25;;;;;;;;;;5056546;28;20454;-54
2023/03/07 10:12:12;;;;;;;8.23;4.63;;;;;;;;;;5057177;28;20092;-54
2023/03/07 10:14:48;;;;;;;4.13;3.15;;;;;;;;;;5056325;28;20048;-51
2023/03/07 10:17:19;;;;;;;7.30;3.08;;;;;;;;;;5056812;28;20033;-53
2023/03/07 10:19:52;;;;;;;7.95;4.47;;;;;;;;;;5057176;28;20033;-51
2023/03/07 10:22:19;;;;;;;5.65;4.72;;;;;;;;;;5056670;28;20025;-55
2023/03/07 10:24:50;;;;;;;5.50;3.67;;;;;;;;;;5056978;28;20024;-53
2023/03/07 10:27:18;;;;;;;6.82;3.80;;;;;;;;;;5057489;28;20028;-54
2023/03/07 10:29:51;;;;;;;4.03;3.50;;;;;;;;;;5056322;28;20581;-51
2023/03/07 10:32:32;;;;;;;6.00;4.50;;;;;;;;;;5056529;28;20024;-57
2023/03/07 10:34:59;;;;;;;;;;;;;;;;;;5057258;28;20025;-52
2023/03/07 10:37:40;;;;;;;5.72;4.55;;;;;;;;;;5056368;28;19904;-56
2023/03/07 10:40:14;;;;;;;5.93;3.08;;;;;;;;;;5056055;28;20017;-51
2023/03/07 10:42:41;;;;;;;7.75;5.32;;;;;;;;;;5056635;28;20027;-52
2023/03/07 10:45:07;;;;;;;5.35;3.85;;;;;;;;;;5056444;28;20525;-54
2023/03/07 10:47:33;;;;;;;4.70;3.42;;;;;;;;;;5056073;28;20036;-52
2023/03/07 10:50:16;;;;;;;7.03;3.67;;;;;;;;;;5056132;28;20028;-54
2023/03/07 10:52:47;;;;;;;6.40;4.05;;;;;;;;;;5056421;28;20029;-52
2023/03/07 10:55:31;;;;;;;5.60;3.90;;;;;;;;;;5056060;28;20025;-55
2023/03/07 10:58:12;;;;;;;3.47;2.88;;;;;;;;;;5056489;28;20348;-58
2023/03/07 11:00:38;;;;;;;;;;;;;;;;;;5056661;28;20083;-52
2023/03/07 11:03:04;;;;;;;6.75;3.90;;;;;;;;;;5056212;28;19908;-51
2023/03/07 11:05:32;;;;;;;6.50;3.67;;;;;;;;;;5055929;28;20108;-57
2023/03/07 11:07:58;;;;;;;5.25;3.80;;;;;;;;;;5055730;28;20039;-56
2023/03/07 11:10:39;;;;;;;5.40;4.10;;;;;;;;;;5055825;28;20033;-53
2023/03/07 11:13:18;;;;;;;5.80;4.00;;;;;;;;;;5055618;28;20059;-55
2023/03/07 11:15:44;;;;;;;6.15;4.05;;;;;;;;;;5055925;28;20029;-51
2023/03/07 11:18:29;;;;;;;6.65;3.97;;;;;;;;;;5055583;28;20056;-55
2023/03/07 11:20:55;;;;;;;6.25;3.30;;;;;;;;;;5055461;28;20127;-53
2023/03/07 11:23:22;;;;;;;6.00;4.25;;;;;;;;;;5055486;28;20025;-54
2023/03/07 11:25:48;;;;;;;5.72;4.22;;;;;;;;;;5055316;28;20029;-54
2023/03/07 11:28:26;;;;;;;6.03;4.22;;;;;;;;;;5055611;28;20746;-56
2023/03/07 11:30:58;;;;;;;6.72;4.30;;;;;;;;;;5055818;28;20029;-53
2023/03/07 11:33:36;;;;;;;6.70;3.83;;;;;;;;;;5055320;28;20025;-56
2023/03/07 11:36:13;;;;;;;11.15;5.10;;;;;;;;;;5055562;28;20025;-51
2023/03/07 11:38:39;;;;;;;6.05;3.88;;;;;;;;;;5055342;28;20040;-54
2023/03/07 11:41:05;;;;;;;5.90;4.50;;;;;;;;;;5055460;28;20033;-56
2023/03/07 11:43:42;;;;;;;5.25;3.75;;;;;;;;;;5055100;28;20025;-54
2023/03/07 11:46:27;;;;;;;6.07;4.18;;;;;;;;;;5054845;28;20478;-56
2023/03/07 11:49:12;;;;;;;6.10;4.35;;;;;;;;;;5054953;28;20036;-56
2023/03/07 11:51:38;;;;;;;10.60;4.55;;;;;;;;;;5053968;28;20083;-54
2023/03/07 11:54:13;;;;;;;6.20;4.32;;;;;;;;;;5055430;28;20451;-55
2023/03/07 11:56:44;;;;;;;5.53;4.30;;;;;;;;;;5055683;28;20119;-56
2023/03/07 11:59:10;;;;;;;6.07;4.18;;;;;;;;;;5055204;28;20021;-54
2023/03/07 12:01:45;;;;;;;8.35;5.30;;;;;;;;;;5054743;28;20528;-52
2023/03/07 12:04:14;;;;;;;7.28;4.80;;;;;;;;;;5054946;28;20049;-56
2023/03/07 12:06:40;;;;;;;7.32;3.97;;;;;;;;;;5054736;28;20033;-56
2023/03/07 12:09:19;;;;;;;4.13;3.55;;;;;;;;;;5054200;28;20395;-54
2023/03/07 12:12:04;;;;;;;7.65;4.70;;;;;;;;;;5055117;28;20040;-55
2023/03/07 12:14:30;;;;;;;8.75;4.10;;;;;;;;;;5055063;28;20356;-55
2023/03/07 12:17:19;;;;;;;5.30;3.60;;;;;;;;;;5054150;28;20050;-56
2023/03/07 12:19:54;;;;;;;4.90;4.22;;;;;;;;;;5055035;28;20067;-56
2023/03/07 12:22:25;;;;;;;5.63;3.00;;;;;;;;;;5054338;28;20051;-52
2023/03/07 12:24:57;;;;;;;5.18;3.55;;;;;;;;;;5054885;28;20025;-55
2023/03/07 12:27:29;;;;;;;5.55;3.28;;;;;;;;;;5054162;28;20055;-54
2023/03/07 12:30:00;;;;;;;8.77;5.05;;;;;;;;;;5054527;28;20063;-56
2023/03/07 12:32:27;;;;;;;10.73;5.32;;;;;;;;;;5054494;28;20032;-56
2023/03/07 12:35:03;;;;;;;9.05;4.15;;;;;;;;;;5054793;28;20088;-57
2023/03/07 12:37:50;;;;;;;6.30;3.00;;;;;;;;;;5054710;28;20115;-54
2023/03/07 12:40:28;;;;;;;6.38;4.10;;;;;;;;;;5054261;28;20126;-55
2023/03/07 12:43:05;;;;;;;5.82;3.28;;;;;;;;;;5054532;28;20440;-54
2023/03/07 12:45:37;;;;;;;6.18;3.67;;;;;;;;;;5054084;28;20025;-55
2023/03/07 12:48:06;;;;;;;6.93;3.75;;;;;;;;;;5054304;28;20057;-56
2023/03/07 12:50:42;;;;;;;5.15;3.63;;;;;;;;;;5053586;28;20060;-56
2023/03/07 12:53:11;;;;;;;5.75;3.65;;;;;;;;;;5053842;28;20460;-56
2023/03/07 12:55:37;;;;;;;4.97;3.80;;;;;;;;;;5054133;28;20025;-56
2023/03/07 12:58:12;;;;;;;7.97;5.05;;;;;;;;;;5053751;28;20033;-55
2023/03/07 13:00:44;;;;;;;6.72;4.00;;;;;;;;;;5053663;28;20427;-55
2023/03/07 13:03:12;;;;;;;4.05;3.08;;;;;;;;;;5053301;28;20033;-56
2023/03/07 13:05:38;;;;;;;6.47;3.60;;;;;;;;;;5053962;28;20029;-53
2023/03/07 13:08:05;;;;;;;6.43;3.90;;;;;;;;;;5054087;28;20072;-56
2023/03/07 13:10:31;;;;;;;5.13;3.67;;;;;;;;;;5053530;28;20078;-55
2023/03/07 13:12:57;;;;;;;8.25;3.58;;;;;;;;;;5053665;28;20102;-55
2023/03/07 13:15:24;;;;;;;6.72;4.38;;;;;;;;;;5053643;28;20025;-57
2023/03/07 13:17:50;;;;;;;4.82;3.75;;;;;;;;;;5053599;28;20040;-56
2023/03/07 13:20:17;;;;;;;4.20;3.20;;;;;;;;;;5054102;28;20086;-56
2023/03/07 13:22:43;;;;;;;5.43;3.30;;;;;;;;;;5053511;28;20025;-56
2023/03/07 13:25:21;;;;;;;3.78;2.72;;;;;;;;;;5053976;28;20032;-55
2023/03/07 13:27:48;;;;;;;6.82;3.67;;;;;;;;;;5053356;28;20069;-52
2023/03/07 13:30:23;;;;;;;5.25;2.92;;;;;;;;;;5054200;28;20459;-57
2023/03/07 13:32:55;;;;;;;2.95;1.67;;;;;;;;;;5053502;28;20079;-55
2023/03/07 13:35:45;;;;;;;3.42;2.70;;;;;;;;;;5054280;28;20061;-57
2023/03/07 13:38:14;;;;;;;3.53;2.30;;;;;;;;;;5042771;28;20086;-56
2023/03/07 13:40:46;;;;;;;4.15;2.33;;;;;;;;;;5053283;28;20033;-56
2023/03/07 13:43:20;;;;;;;4.57;2.45;;;;;;;;;;5053159;28;20079;-59
2023/03/07 13:45:51;;;;;;;4.15;2.55;;;;;;;;;;5053629;28;20074;-56
2023/03/07 13:48:29;;;;;;;4.22;2.70;;;;;;;;;;5053101;28;20040;-57
2023/03/07 13:50:58;;;;;;;3.83;2.20;;;;;;;;;;5053619;28;20021;-56
2023/03/07 13:53:33;;;;;;;2.80;1.92;;;;;;;;;;5053650;28;20359;-57
2023/03/07 13:56:02;;;;;;;4.30;2.60;;;;;;;;;;5053552;28;20055;-56
2023/03/07 13:58:31;;;;;;;4.50;2.70;;;;;;;;;;5053659;28;20110;-55
2023/03/07 14:00:58;;;;;;;4.05;2.33;;;;;;;;;;5052717;28;20150;-54
2023/03/07 14:03:28;;;;;;;4.65;2.90;;;;;;;;;;5053146;28;20040;-55
2023/03/07 14:05:55;;;;;;;4.10;2.58;;;;;;;;;;5053836;28;20029;-55
2023/03/07 14:08:23;;;;;;;3.97;2.38;;;;;;;;;;5053243;28;20069;-57
2023/03/07 14:10:49;;;;;;;3.72;2.30;;;;;;;;;;5053156;28;20032;-58
2023/03/07 14:13:24;;;;;;;6.40;3.00;;;;;;;;;;5053425;28;20482;-57
2023/03/07 14:16:05;;;;;;;4.05;2.85;;;;;;;;;;5056654;28;20025;-55
2023/03/07 14:18:49;;;;;;;2.95;2.17;;;;;;;;;;5056826;28;20041;-53
2023/03/07 14:21:38;;;;;;;3.20;2.08;;;;;;;;;;5055350;28;20029;-54
2023/03/07 14:24:07;;;;;;;4.20;2.75;;;;;;;;;;5057195;28;20453;-53
2023/03/07 14:26:59;;;;;;;3.15;2.25;;;;;;;;;;5056890;28;20031;-56
2023/03/07 14:29:27;;;;;;;3.10;1.60;;;;;;;;;;5054861;28;20131;-54
2023/03/07 14:31:58;;;;;;;4.95;3.03;;;;;;;;;;5057049;28;20033;-55
2023/03/07 14:34:24;;;;;;;4.15;2.45;;;;;;;;;;5057022;28;20033;-56
2023/03/07 14:36:52;;;;;;;6.85;2.20;;;;;;;;;;5057201;28;20021;-56
2023/03/07 14:39:19;;;;;;;5.65;2.80;;;;;;;;;;5056062;28;20380;-53
2023/03/07 14:41:52;;;;;;;5.18;3.20;;;;;;;;;;5056346;28;20025;-53
2023/03/07 14:44:29;;;;;;;4.57;1.85;;;;;;;;;;5056985;28;20044;-57
2023/03/07 14:47:01;;;;;;;4.35;2.28;;;;;;;;;;5056256;28;20025;-58
2023/03/07 14:49:38;;;;;;;4.43;2.42;;;;;;;;;;5056088;28;20041;-54
2023/03/07 14:52:04;;;;;;;4.80;2.08;;;;;;;;;;5055933;28;20108;-55